Mariposa, CA (95338)

9:20 PM PDT on August 30, 2016 (GMT -0700)
Mariposa Fairgrounds | | Change Station

Elev 1851 ft 37.47 °N, 119.95 °W | Updated 23 seconds ago

Mostly Cloudy
Mostly Cloudy
72.3 °F
Feels Like 77 °F
N
0.0
Wind Variable Wind from WNW
Gusts 0.0 mph

Today
High -- | Low -- °F
--% Chance of Precip.
Yesterday
High -- | Low -- °F
Precip. -- in
Pressure 29.94 in
Visibility 10.0 miles
Clouds Mostly Cloudy 4000 ft
Heat Index 77 °F
Dew Point 44 °F
Humidity 36%
Rainfall in
Snow Depth Not available.
6:28 AM 7:30 PM
Waning Crescent, 2% visible
METAR KO22 310355Z AUTO 04003KT 10SM BKN040 22/05 A2994 RMK AO1
Pressure 29.94 in
Visibility 10.0 miles
Clouds Mostly Cloudy 4000 ft
Heat Index 77 °F
Dew Point 44 °F
Humidity 36%
Rainfall in
Snow Depth Not available.
6:28 AM 7:30 PM
Waning Crescent, 2% visible
METAR KO22 310355Z AUTO 04003KT 10SM BKN040 22/05 A2994 RMK AO1

10-Day Weather Forecast

Almanac

Astronomy

Aug. 30, 2016 Rise Set
Actual Time
Civil Twilight
Nautical Twilight
Astronomical Twilight
Moon
Length of Visible Light
Length of Day
Tomorrow will be .
, % of the Moon is Illuminated

Today's Extremes

State Highs State Lows

Community

WunderPhotos

Upload Photos

1,936,032 photos uploaded!

WunderBlog® & News

Nearby

Air Quality

  Air Quality AQ Index Pollutant
Not available.

Snow Depth

Station Depth Elevation

Earthquake Activity

City Distance Mag. Time & Date
Minimum magnitude displayed is 2.5.

Coastal Water Temperatures

Place Temperature

Stations

Nearby Weather Stations

Station Location Temp. Windchill Dew Point Humidity Wind Precip. Elev Updated Type
                   

Watches & Warnings

There are currently no watches in effect.